Terminal Aerodrome Forecast
Issued by NWS Sterling, VA

Current Version | Previous Version | Graphics & Text | Print | Product List | Glossary Off
Versions: 1 2 3 4 5 6 7 8 9 10 11 12 13 14 15 16 17 18 19 20 21 22 23 24 25 26

000
FTUS41 KLWX 021144 CCA
TAFIAD
TAF COR
KIAD 021144Z 0212/0318 VRB04KT 1 1/2SM -SHRA BR OVC004
     FM021300 19006KT 2SM BR OVC008
     FM022000 21008KT P6SM VCTS BKN035CB
     FM030000 23006KT 5SM -SHRA BR VCTS OVC050CB
     FM030200 27005KT 3SM -SHRA BR OVC040
     FM030500 35004KT 2SM SHRA BR OVC003
     FM031500 36006KT 3SM -SHRA OVC008=

USA.gov is the U.S. government's official web portal to all federal, state and local government web resources and services.